Time;durP1;ratioP1;P1;durP2;ratioP2;P2;SDS_P1;SDS_P2;PMS_P1;PMS_P2;Temp;Humidity;BMP_temperature;BMP_pressure;BME280_temperature;BME280_humidity;BME280_pressure;Samples;Min_cycle;Max_cycle;Signal;HPM_P1;HPM_P2
2022/04/07 00:01:01;;;;;;;1.80;1.13;;;;;;;;;;5013775;28;20030;-59
2022/04/07 00:03:40;;;;;;;1.55;1.00;;;;;;;;;;5046514;28;20108;-58
2022/04/07 00:06:17;;;;;;;1.23;0.75;;;;;;;;;;5046478;28;20049;-59
2022/04/07 00:08:53;;;;;;;2.15;1.08;;;;;;;;;;5045122;28;20048;-58
2022/04/07 00:11:50;;;;;;;1.25;0.60;;;;;;;;;;5046101;28;20033;-58
2022/04/07 00:14:19;;;;;;;1.33;0.75;;;;;;;;;;5047042;28;20021;-59
2022/04/07 00:19:58;;;;;;;1.92;1.08;;;;;;;;;;4985284;28;20055;-59
2022/04/07 00:22:57;;;;;;;1.55;0.82;;;;;;;;;;4985602;28;20046;-58
2022/04/07 00:25:33;;;;;;;2.33;0.90;;;;;;;;;;4968634;28;20050;-59
2022/04/07 00:37:05;;;;;;;1.23;0.63;;;;;;;;;;4984380;28;20088;-59
2022/04/07 00:39:41;;;;;;;1.35;0.80;;;;;;;;;;5041450;28;20041;-59
2022/04/07 00:42:23;;;;;;;1.70;0.77;;;;;;;;;;5046053;28;20025;-58
2022/04/07 00:45:04;;;;;;;1.52;0.50;;;;;;;;;;5046573;28;20029;-58
2022/04/07 00:47:53;;;;;;;1.55;0.63;;;;;;;;;;5045181;28;20030;-58
2022/04/07 00:50:35;;;;;;;1.00;0.50;;;;;;;;;;5041796;28;20029;-58
2022/04/07 00:53:14;;;;;;;1.08;0.80;;;;;;;;;;5046344;28;20032;-58
2022/04/07 00:56:23;;;;;;;1.70;1.10;;;;;;;;;;5045093;28;20097;-58
2022/04/07 01:02:19;;;;;;;1.23;0.63;;;;;;;;;;4984930;28;20042;-58
2022/04/07 01:05:09;;;;;;;1.70;0.90;;;;;;;;;;5045892;28;20736;-59
2022/04/07 01:10:25;;;;;;;1.55;0.88;;;;;;;;;;5045936;28;20080;-58
2022/04/07 01:15:56;;;;;;;1.40;0.77;;;;;;;;;;5042522;28;20065;-59
2022/04/07 01:18:47;;;;;;;2.10;1.10;;;;;;;;;;5047255;28;20037;-58
2022/04/07 01:21:18;;;;;;;2.08;0.80;;;;;;;;;;5049209;28;20029;-59
2022/04/07 01:24:17;;;;;;;1.92;0.80;;;;;;;;;;5049262;28;20089;-59
2022/04/07 01:27:05;;;;;;;2.03;1.17;;;;;;;;;;5049278;28;20033;-59
2022/04/07 01:29:53;;;;;;;1.45;0.80;;;;;;;;;;5047993;28;20049;-59
2022/04/07 01:32:33;;;;;;;2.17;1.20;;;;;;;;;;5048727;28;20057;-59
2022/04/07 01:38:05;;;;;;;3.63;1.52;;;;;;;;;;5048866;28;20064;-58
2022/04/07 01:46:34;;;;;;;1.85;0.93;;;;;;;;;;5048665;28;20035;-59
2022/04/07 01:49:14;;;;;;;4.18;0.98;;;;;;;;;;5046262;28;20037;-59
2022/04/07 01:52:30;;;;;;;2.28;1.23;;;;;;;;;;5048936;28;20463;-59
2022/04/07 01:58:33;;;;;;;1.95;0.98;;;;;;;;;;4983320;28;20102;-58
2022/04/07 02:01:09;;;;;;;1.17;0.70;;;;;;;;;;5006929;28;20027;-58
2022/04/07 02:04:03;;;;;;;1.33;0.85;;;;;;;;;;5007185;28;20061;-58
2022/04/07 02:06:39;;;;;;;1.67;0.88;;;;;;;;;;5034356;28;20108;-58
2022/04/07 02:12:29;;;;;;;1.45;0.77;;;;;;;;;;5017461;28;20033;-59
2022/04/07 02:15:16;;;;;;;1.77;0.77;;;;;;;;;;5045924;28;20050;-59
2022/04/07 02:18:12;;;;;;;4.35;0.85;;;;;;;;;;5047146;28;20042;-59
2022/04/07 02:23:56;;;;;;;1.33;0.80;;;;;;;;;;5039943;28;20072;-59
2022/04/07 02:30:19;;;;;;;1.88;0.77;;;;;;;;;;4986671;28;20043;-58
2022/04/07 02:32:56;;;;;;;1.67;1.00;;;;;;;;;;4971180;28;20537;-58
2022/04/07 02:38:30;;;;;;;2.25;1.08;;;;;;;;;;4969063;28;20039;-59
2022/04/07 02:41:19;;;;;;;1.75;0.77;;;;;;;;;;4968575;28;20039;-59
2022/04/07 02:47:18;;;;;;;1.58;0.75;;;;;;;;;;4836243;29;20042;-58
2022/04/07 02:49:52;;;;;;;1.30;0.60;;;;;;;;;;4952180;28;20364;-58
2022/04/07 02:52:54;;;;;;;2.58;0.77;;;;;;;;;;4987119;28;20039;-59
2022/04/07 02:55:55;;;;;;;2.10;1.13;;;;;;;;;;4986595;28;20086;-58
2022/04/07 03:01:29;;;;;;;1.33;0.50;;;;;;;;;;4982019;28;20030;-59
2022/04/07 03:04:02;;;;;;;1.15;0.35;;;;;;;;;;5012284;28;20037;-58
2022/04/07 03:09:33;;;;;;;2.63;0.70;;;;;;;;;;5023111;28;20087;-59
2022/04/07 03:15:27;;;;;;;;;;;;;;;;;;5047815;28;20075;-59
2022/04/07 03:18:15;;;;;;;0.77;0.30;;;;;;;;;;5044895;28;20328;-59
2022/04/07 03:24:13;;;;;;;0.80;0.50;;;;;;;;;;5047786;28;20132;-59
2022/04/07 03:27:14;;;;;;;1.13;0.52;;;;;;;;;;5046517;28;20033;-57
2022/04/07 03:30:09;;;;;;;1.00;0.38;;;;;;;;;;5031255;28;20061;-59
2022/04/07 03:36:04;;;;;;;2.03;0.63;;;;;;;;;;4972713;28;20038;-58
2022/04/07 03:38:58;;;;;;;1.33;0.60;;;;;;;;;;5033192;28;20421;-58
2022/04/07 03:41:55;;;;;;;0.73;0.35;;;;;;;;;;5032950;28;20033;-58
2022/04/07 03:44:40;;;;;;;1.35;0.50;;;;;;;;;;5027117;28;20503;-58
2022/04/07 03:50:51;;;;;;;1.25;0.60;;;;;;;;;;5029904;28;20036;-58
2022/04/07 03:54:01;;;;;;;0.93;0.55;;;;;;;;;;5033376;28;20547;-58
2022/04/07 04:00:04;;;;;;;1.60;0.73;;;;;;;;;;5010130;28;20261;-58
2022/04/07 04:02:38;;;;;;;1.88;0.77;;;;;;;;;;4974931;28;20499;-58
2022/04/07 04:11:19;;;;;;;3.80;0.38;;;;;;;;;;5013606;28;20118;-58
2022/04/07 04:17:05;;;;;;;2.05;1.10;;;;;;;;;;5031952;28;20545;-58
2022/04/07 04:23:00;;;;;;;;;;;;;;;;;;;;;
2022/04/07 04:25:46;;;;;;;1.10;0.57;;;;;;;;;;5032683;28;20043;-58
2022/04/07 04:28:54;;;;;;;1.17;0.57;;;;;;;;;;5030096;28;20486;-58
2022/04/07 04:31:32;;;;;;;2.05;0.77;;;;;;;;;;5030800;28;20056;-57
2022/04/07 04:34:24;;;;;;;0.95;0.40;;;;;;;;;;5033035;28;20652;-58
2022/04/07 04:37:12;;;;;;;0.95;0.57;;;;;;;;;;5002360;28;20167;-58
2022/04/07 04:40:07;;;;;;;1.58;0.77;;;;;;;;;;5032520;28;20432;-58
2022/04/07 04:43:05;;;;;;;2.13;0.60;;;;;;;;;;5032981;28;20034;-57
2022/04/07 04:51:57;;;;;;;1.45;0.60;;;;;;;;;;5034933;28;20029;-58
2022/04/07 04:54:39;;;;;;;;;;;;;;;;;;;;;
2022/04/07 04:57:17;;;;;;;2.13;0.60;;;;;;;;;;5029680;28;20490;-58
2022/04/07 05:00:16;;;;;;;1.73;0.70;;;;;;;;;;5018609;28;20494;-56
2022/04/07 05:06:20;;;;;;;1.15;0.45;;;;;;;;;;4993889;28;20120;-58
2022/04/07 05:12:26;;;;;;;0.43;0.20;;;;;;;;;;4935982;29;20059;-58
2022/04/07 05:18:49;;;;;;;1.55;0.30;;;;;;;;;;5011460;28;20049;-58
2022/04/07 05:21:43;;;;;;;;;;;;;;;;;;;;;
2022/04/07 05:24:31;;;;;;;0.57;0.32;;;;;;;;;;5015887;28;20375;-58
2022/04/07 05:30:22;;;;;;;0.60;0.30;;;;;;;;;;5036329;28;20064;-56
2022/04/07 05:33:20;;;;;;;0.85;0.40;;;;;;;;;;5031125;28;20479;-59
2022/04/07 05:36:01;;;;;;;0.73;0.30;;;;;;;;;;5039853;28;20052;-59
2022/04/07 05:38:55;;;;;;;1.10;0.70;;;;;;;;;;5034087;28;20593;-58
2022/04/07 05:41:47;;;;;;;;;;;;;;;;;;;;;
2022/04/07 05:50:44;;;;;;;1.17;0.60;;;;;;;;;;4946090;28;20122;-58
2022/04/07 05:53:40;;;;;;;0.95;0.40;;;;;;;;;;5033223;28;20041;-58
2022/04/07 05:56:18;;;;;;;2.05;1.23;;;;;;;;;;5006926;28;20044;-58
2022/04/07 05:59:06;;;;;;;;;;;;;;;;;;;;;
2022/04/07 06:02:01;;;;;;;0.60;0.28;;;;;;;;;;5035434;28;20033;-58
2022/04/07 06:04:42;;;;;;;0.70;0.32;;;;;;;;;;5029921;28;20045;-56
2022/04/07 06:07:28;;;;;;;0.30;0.10;;;;;;;;;;5035185;28;20057;-58
2022/04/07 06:10:28;;;;;;;0.13;0.10;;;;;;;;;;5035405;28;20038;-59
2022/04/07 06:13:24;;;;;;;0.83;0.33;;;;;;;;;;5034933;28;20047;-58
2022/04/07 06:15:59;;;;;;;1.15;0.20;;;;;;;;;;5008566;28;20065;-56
2022/04/07 06:18:48;;;;;;;0.28;0.10;;;;;;;;;;5034651;28;20124;-58
2022/04/07 06:21:56;;;;;;;;;;;;;;;;;;;;;
2022/04/07 06:25:01;;;;;;;4.00;0.30;;;;;;;;;;5001422;28;20428;-58
2022/04/07 06:30:54;;;;;;;3.90;0.40;;;;;;;;;;4989781;28;20654;-57
2022/04/07 06:33:38;;;;;;;1.38;0.60;;;;;;;;;;5028659;28;20049;-58
2022/04/07 06:36:36;;;;;;;0.77;0.30;;;;;;;;;;5048266;28;20048;-57
2022/04/07 06:39:15;;;;;;;0.38;0.15;;;;;;;;;;5026946;28;20045;-59
2022/04/07 06:41:45;;;;;;;0.85;0.32;;;;;;;;;;5047879;28;20030;-59
2022/04/07 06:44:27;;;;;;;0.25;0.10;;;;;;;;;;5046825;28;20026;-59
2022/04/07 06:47:03;;;;;;;0.88;0.35;;;;;;;;;;5047567;28;20021;-58
2022/04/07 06:49:40;;;;;;;0.65;0.20;;;;;;;;;;5047165;28;20319;-57
2022/04/07 06:52:28;;;;;;;0.32;0.17;;;;;;;;;;5028089;28;20041;-57
2022/04/07 06:55:13;;;;;;;0.88;0.40;;;;;;;;;;5026929;28;20036;-58
2022/04/07 07:01:03;;;;;;;0.30;0.10;;;;;;;;;;4946640;29;20046;-57
2022/04/07 07:03:39;;;;;;;0.57;0.32;;;;;;;;;;4945017;29;20035;-57
2022/04/07 07:06:32;;;;;;;0.10;0.10;;;;;;;;;;4947444;29;20056;-58
2022/04/07 07:09:02;;;;;;;0.20;0.10;;;;;;;;;;4946785;29;20118;-57
2022/04/07 07:14:31;;;;;;;0.20;0.20;;;;;;;;;;4951255;28;20047;-58
2022/04/07 07:19:44;;;;;;;0.90;0.52;;;;;;;;;;5024356;28;20053;-58
2022/04/07 07:22:23;;;;;;;0.30;0.20;;;;;;;;;;5025190;28;20026;-58
2022/04/07 07:28:06;;;;;;;;;;;;;;;;;;5033748;28;20041;-57
2022/04/07 07:31:07;;;;;;;;;;;;;;;;;;;;;
2022/04/07 07:33:48;;;;;;;1.92;0.45;;;;;;;;;;5011775;28;20033;-58
2022/04/07 07:36:36;;;;;;;0.43;0.20;;;;;;;;;;5033484;28;20032;-57
2022/04/07 07:39:29;;;;;;;;;;;;;;;;;;;;;
2022/04/07 07:42:03;;;;;;;0.13;0.08;;;;;;;;;;5010006;28;20499;-57
2022/04/07 07:44:52;;;;;;;0.60;0.20;;;;;;;;;;4994706;28;20064;-59
2022/04/07 07:50:11;;;;;;;0.40;0.20;;;;;;;;;;5028552;28;20041;-58
2022/04/07 07:53:06;;;;;;;0.30;0.20;;;;;;;;;;4971941;28;20518;-57
2022/04/07 07:58:49;;;;;;;;;;;;;;;;;;;;;
2022/04/07 08:01:37;;;;;;;0.20;0.10;;;;;;;;;;4969000;28;20039;-59
2022/04/07 08:07:55;;;;;;;2.45;0.40;;;;;;;;;;4971395;28;20038;-58
2022/04/07 08:10:45;;;;;;;1.05;0.40;;;;;;;;;;4971625;28;20153;-59
2022/04/07 08:13:54;;;;;;;;;;;;;;;;;;;;;
2022/04/07 08:22:40;;;;;;;0.93;0.20;;;;;;;;;;4878366;29;20037;-58
2022/04/07 08:25:52;;;;;;;;;;;;;;;;;;;;;
2022/04/07 08:28:34;;;;;;;1.42;0.40;;;;;;;;;;4917676;29;20070;-57
2022/04/07 08:31:33;;;;;;;0.80;0.28;;;;;;;;;;4937865;28;20414;-58
2022/04/07 08:34:17;;;;;;;2.13;0.40;;;;;;;;;;5034087;28;20491;-59
2022/04/07 08:40:05;;;;;;;;;;;;;;;;;;5003455;28;20119;-58
2022/04/07 08:43:08;;;;;;;0.43;0.20;;;;;;;;;;5028483;28;20416;-57
2022/04/07 08:45:45;;;;;;;0.70;0.30;;;;;;;;;;4985945;28;20042;-58
2022/04/07 08:57:31;;;;;;;0.90;0.35;;;;;;;;;;5014286;28;20084;-59
2022/04/07 09:00:13;;;;;;;;;;;;;;;;;;;;;
2022/04/07 09:03:33;;;;;;;;;;;;;;;;;;;;;
2022/04/07 09:06:24;;;;;;;0.88;0.20;;;;;;;;;;5032400;28;20058;-57
2022/04/07 09:09:16;;;;;;;0.15;0.05;;;;;;;;;;5015953;28;20037;-59
2022/04/07 09:11:51;;;;;;;2.35;0.15;;;;;;;;;;5018133;28;20021;-57
2022/04/07 09:14:37;;;;;;;;;;;;;;;;;;;;;
2022/04/07 09:26:24;;;;;;;0.85;0.20;;;;;;;;;;5036468;28;20105;-56
2022/04/07 09:29:09;;;;;;;0.05;0.00;;;;;;;;;;5018468;28;20069;-57
2022/04/07 09:31:54;;;;;;;0.75;0.30;;;;;;;;;;5039080;28;20513;-56
2022/04/07 09:34:52;;;;;;;0.68;0.20;;;;;;;;;;5036241;28;20029;-56
2022/04/07 09:37:46;;;;;;;1.05;0.30;;;;;;;;;;5034362;28;20439;-58
2022/04/07 09:40:28;;;;;;;1.55;0.05;;;;;;;;;;5035512;28;20412;-57
2022/04/07 09:46:09;;;;;;;1.08;0.32;;;;;;;;;;5035601;28;20503;-57
2022/04/07 09:49:20;;;;;;;;;;;;;;;;;;;;;
2022/04/07 09:51:51;;;;;;;4.40;0.30;;;;;;;;;;4896391;29;20031;-55
2022/04/07 10:00:09;;;;;;;1.02;0.30;;;;;;;;;;5024714;28;20037;-57
2022/04/07 10:09:30;;;;;;;0.52;0.13;;;;;;;;;;4987411;28;20621;-57
2022/04/07 10:15:40;;;;;;;0.00;0.00;;;;;;;;;;4973556;28;20050;-57
2022/04/07 10:21:13;;;;;;;0.25;0.10;;;;;;;;;;5035488;28;20101;-57
2022/04/07 10:24:03;;;;;;;0.32;0.20;;;;;;;;;;5034638;28;20079;-58
2022/04/07 10:26:53;;;;;;;0.90;0.30;;;;;;;;;;5011082;28;20025;-55
2022/04/07 10:35:40;;;;;;;0.20;0.10;;;;;;;;;;5009422;28;20029;-57
2022/04/07 10:38:34;;;;;;;0.00;0.00;;;;;;;;;;5008292;28;20073;-55
2022/04/07 10:47:33;;;;;;;0.13;0.10;;;;;;;;;;5034195;28;20080;-57
2022/04/07 10:50:02;;;;;;;1.30;0.57;;;;;;;;;;5033140;28;20471;-57
2022/04/07 10:55:33;;;;;;;0.55;0.22;;;;;;;;;;5033776;28;20498;-56
2022/04/07 11:01:25;;;;;;;0.93;0.20;;;;;;;;;;5034442;28;20071;-57
2022/04/07 11:04:35;;;;;;;0.17;0.10;;;;;;;;;;5026685;28;20026;-56
2022/04/07 11:07:31;;;;;;;0.17;0.00;;;;;;;;;;5001531;28;20033;-58
2022/04/07 11:10:30;;;;;;;0.80;0.20;;;;;;;;;;5016194;28;20498;-56
2022/04/07 11:16:12;;;;;;;3.63;0.22;;;;;;;;;;5033316;28;20903;-56
2022/04/07 11:22:22;;;;;;;0.00;0.00;;;;;;;;;;5033533;28;20028;-57
2022/04/07 11:31:05;;;;;;;1.75;0.20;;;;;;;;;;5017691;28;20090;-57
2022/04/07 11:36:45;;;;;;;0.30;0.10;;;;;;;;;;5001563;28;20021;-58
2022/04/07 11:39:35;;;;;;;0.20;0.00;;;;;;;;;;5016799;28;20037;-57
2022/04/07 11:45:15;;;;;;;0.10;0.10;;;;;;;;;;5032312;28;20475;-57
2022/04/07 11:51:13;;;;;;;0.47;0.10;;;;;;;;;;4955848;28;20036;-57
2022/04/07 11:54:00;;;;;;;0.63;0.10;;;;;;;;;;5036065;28;20026;-58
2022/04/07 12:12:40;;;;;;;1.55;0.38;;;;;;;;;;5009076;28;20083;-56
2022/04/07 12:21:19;;;;;;;2.65;0.40;;;;;;;;;;4953024;28;20059;-57
2022/04/07 12:36:07;;;;;;;0.38;0.17;;;;;;;;;;4910209;29;20059;-57
2022/04/07 12:38:33;;;;;;;0.20;0.10;;;;;;;;;;4885551;29;20498;-54
2022/04/07 12:41:28;;;;;;;;;;;;;;;;;;;;;
2022/04/07 12:47:29;;;;;;;0.25;0.17;;;;;;;;;;4908221;28;20032;-57
2022/04/07 12:50:26;;;;;;;0.63;0.30;;;;;;;;;;5020334;28;20475;-56
2022/04/07 12:56:27;;;;;;;0.28;0.10;;;;;;;;;;4996017;28;20149;-57
2022/04/07 12:59:17;;;;;;;0.10;0.10;;;;;;;;;;5029924;28;20044;-56
2022/04/07 13:02:23;;;;;;;;;;;;;;;;;;;;;
2022/04/07 13:05:28;;;;;;;0.20;0.10;;;;;;;;;;5005055;28;20038;-57
2022/04/07 13:14:40;;;;;;;0.15;0.10;;;;;;;;;;4933642;29;20086;-57
2022/04/07 13:20:15;;;;;;;0.70;0.10;;;;;;;;;;5008865;28;20044;-55
2022/04/07 13:25:54;;;;;;;3.50;0.25;;;;;;;;;;5036059;28;20076;-56
2022/04/07 13:28:29;;;;;;;0.10;0.10;;;;;;;;;;4989721;28;20053;-56
2022/04/07 13:34:03;;;;;;;0.60;0.20;;;;;;;;;;4973388;28;20515;-57
2022/04/07 13:36:32;;;;;;;0.20;0.10;;;;;;;;;;5029330;28;20100;-58
2022/04/07 13:39:08;;;;;;;0.35;0.17;;;;;;;;;;5032910;28;20048;-56
2022/04/07 13:44:58;;;;;;;0.15;0.10;;;;;;;;;;5029514;28;20067;-57
2022/04/07 13:51:04;;;;;;;0.28;0.10;;;;;;;;;;5017414;28;20658;-57
2022/04/07 13:53:42;;;;;;;0.08;0.03;;;;;;;;;;5025038;28;20029;-56
2022/04/07 13:59:48;;;;;;;0.52;0.20;;;;;;;;;;5033350;28;20041;-59
2022/04/07 14:02:23;;;;;;;0.43;0.32;;;;;;;;;;5035398;28;20116;-55
2022/04/07 14:05:08;;;;;;;1.95;0.20;;;;;;;;;;5000824;28;20076;-56
2022/04/07 14:07:53;;;;;;;0.00;0.00;;;;;;;;;;5014799;28;20430;-57
2022/04/07 14:10:42;;;;;;;0.10;0.10;;;;;;;;;;5033953;28;20036;-57
2022/04/07 14:14:00;;;;;;;;;;;;;;;;;;;;;
2022/04/07 14:19:42;;;;;;;0.10;0.10;;;;;;;;;;5028756;28;20049;-55
2022/04/07 14:22:15;;;;;;;5.18;0.50;;;;;;;;;;5033800;28;20032;-57
2022/04/07 14:25:00;;;;;;;0.10;0.10;;;;;;;;;;5022051;28;20029;-57
2022/04/07 14:28:04;;;;;;;0.13;0.10;;;;;;;;;;5033587;28;20271;-57
2022/04/07 14:33:51;;;;;;;0.55;0.30;;;;;;;;;;4992289;28;20022;-57
2022/04/07 14:36:41;;;;;;;0.25;0.13;;;;;;;;;;4991417;28;20532;-57
2022/04/07 14:39:39;;;;;;;1.27;0.28;;;;;;;;;;4981500;28;20149;-57
2022/04/07 14:45:37;;;;;;;0.63;0.30;;;;;;;;;;4934071;29;20102;-58
2022/04/07 14:48:05;;;;;;;0.40;0.20;;;;;;;;;;4931775;29;20066;-57
2022/04/07 14:51:05;;;;;;;0.40;0.10;;;;;;;;;;4982643;28;20208;-57
2022/04/07 14:56:39;;;;;;;0.28;0.10;;;;;;;;;;5016335;28;20308;-57
2022/04/07 15:05:21;;;;;;;3.30;0.20;;;;;;;;;;5001751;28;20033;-58
2022/04/07 15:20:30;;;;;;;1.00;0.45;;;;;;;;;;4952254;29;20066;-55
2022/04/07 15:23:11;;;;;;;0.28;0.10;;;;;;;;;;4936508;29;20035;-57
2022/04/07 15:25:38;;;;;;;;;;;;;;;;;;4975801;28;20029;-57
2022/04/07 15:28:26;;;;;;;3.78;1.40;;;;;;;;;;4989967;28;19909;-58
2022/04/07 15:31:21;;;;;;;;;;;;;;;;;;;;;
2022/04/07 15:34:23;;;;;;;0.10;0.10;;;;;;;;;;5029402;28;20029;-57
2022/04/07 15:37:14;;;;;;;;;;;;;;;;;;;;;
2022/04/07 15:40:08;;;;;;;0.45;0.10;;;;;;;;;;5028268;28;20367;-58
2022/04/07 15:42:47;;;;;;;0.10;0.00;;;;;;;;;;5025262;28;20077;-57
2022/04/07 15:45:38;;;;;;;2.22;0.47;;;;;;;;;;5030565;28;20065;-57
2022/04/07 15:48:33;;;;;;;0.77;0.40;;;;;;;;;;5029932;28;20059;-57
2022/04/07 15:51:10;;;;;;;0.00;0.00;;;;;;;;;;4960282;28;20435;-56
2022/04/07 15:53:46;;;;;;;0.35;0.10;;;;;;;;;;5029310;28;20037;-57
2022/04/07 15:56:20;;;;;;;0.47;0.20;;;;;;;;;;5032696;28;20132;-56
2022/04/07 15:59:19;;;;;;;1.55;0.30;;;;;;;;;;5018010;28;20506;-56
2022/04/07 16:05:33;;;;;;;1.10;0.40;;;;;;;;;;4941133;28;20517;-57
2022/04/07 16:08:25;;;;;;;0.38;0.10;;;;;;;;;;4952173;28;20401;-58
2022/04/07 16:14:11;;;;;;;0.20;0.10;;;;;;;;;;5021529;28;20034;-57
2022/04/07 16:19:49;;;;;;;0.13;0.10;;;;;;;;;;5031402;28;20037;-56
2022/04/07 16:25:51;;;;;;;0.73;0.28;;;;;;;;;;5014523;28;20037;-56
2022/04/07 16:28:36;;;;;;;0.65;0.30;;;;;;;;;;5029260;28;20030;-55
2022/04/07 16:31:42;;;;;;;0.45;0.20;;;;;;;;;;5031794;28;20156;-55
2022/04/07 16:34:41;;;;;;;;;;;;;;;;;;;;;
2022/04/07 16:37:13;;;;;;;1.10;0.63;;;;;;;;;;5028291;28;20045;-57
2022/04/07 16:40:06;;;;;;;1.00;0.40;;;;;;;;;;5027469;28;20455;-57
2022/04/07 16:42:59;;;;;;;1.52;0.50;;;;;;;;;;5025240;28;20029;-56
2022/04/07 16:45:38;;;;;;;1.27;0.20;;;;;;;;;;5027946;28;20708;-57
2022/04/07 16:51:48;;;;;;;0.40;0.25;;;;;;;;;;5006634;28;20042;-56
2022/04/07 16:54:54;;;;;;;0.50;0.17;;;;;;;;;;5029114;28;20334;-55
2022/04/07 16:57:45;;;;;;;1.88;0.45;;;;;;;;;;5015804;28;20048;-56
2022/04/07 17:00:36;;;;;;;0.85;0.38;;;;;;;;;;5033771;28;20568;-55
2022/04/07 17:03:40;;;;;;;2.15;0.30;;;;;;;;;;5031461;28;20033;-54
2022/04/07 17:06:30;;;;;;;;;;;;;;;;;;;;;
2022/04/07 17:08:59;;;;;;;0.15;0.10;;;;;;;;;;5016135;28;20045;-56
2022/04/07 17:11:25;;;;;;;0.10;0.00;;;;;;;;;;5031968;28;20053;-54
2022/04/07 17:27:04;;;;;;;0.60;0.25;;;;;;;;;;4930077;29;20036;-57
2022/04/07 17:29:50;;;;;;;0.52;0.20;;;;;;;;;;4897580;29;20135;-59
2022/04/07 17:32:30;;;;;;;0.30;0.20;;;;;;;;;;4922943;29;20036;-56
2022/04/07 17:37:52;;;;;;;0.38;0.20;;;;;;;;;;4922661;29;20143;-57
2022/04/07 17:41:09;;;;;;;0.98;0.25;;;;;;;;;;4958863;28;20046;-57
2022/04/07 17:43:50;;;;;;;1.08;0.47;;;;;;;;;;5030269;28;20036;-56
2022/04/07 17:46:49;;;;;;;0.68;0.30;;;;;;;;;;5031210;28;20033;-55
2022/04/07 17:49:43;;;;;;;0.85;0.40;;;;;;;;;;5028667;28;20505;-57
2022/04/07 17:52:15;;;;;;;2.08;0.57;;;;;;;;;;5011261;28;20057;-57
2022/04/07 18:01:06;;;;;;;1.80;0.75;;;;;;;;;;5027382;28;20048;-58
2022/04/07 18:04:10;;;;;;;1.20;0.30;;;;;;;;;;5031724;28;20278;-54
2022/04/07 18:06:45;;;;;;;0.73;0.30;;;;;;;;;;5000159;28;20546;-54
2022/04/07 18:09:53;;;;;;;0.30;0.15;;;;;;;;;;5030026;28;20060;-56
2022/04/07 18:12:47;;;;;;;0.52;0.20;;;;;;;;;;5032431;28;20260;-54
2022/04/07 18:15:39;;;;;;;1.13;0.40;;;;;;;;;;5032450;28;20535;-54
2022/04/07 18:18:14;;;;;;;0.93;0.40;;;;;;;;;;5029827;28;20044;-57
2022/04/07 18:27:28;;;;;;;1.08;0.47;;;;;;;;;;4980147;28;20052;-55
2022/04/07 18:32:49;;;;;;;1.35;0.30;;;;;;;;;;5005616;28;20037;-56
2022/04/07 18:38:09;;;;;;;0.93;0.40;;;;;;;;;;5031663;28;20048;-56
2022/04/07 18:40:44;;;;;;;0.35;0.20;;;;;;;;;;5032688;28;20025;-55
2022/04/07 18:44:02;;;;;;;1.25;0.32;;;;;;;;;;4970249;28;20077;-56
2022/04/07 18:46:21;;;;;;;;;;;;;;;;;;5027428;28;20060;-56
2022/04/07 18:49:20;;;;;;;1.42;0.43;;;;;;;;;;5021350;28;20510;-55
2022/04/07 18:52:12;;;;;;;1.38;0.50;;;;;;;;;;5004097;28;20107;-57
2022/04/07 18:58:10;;;;;;;1.52;0.77;;;;;;;;;;4965500;28;20040;-55
2022/04/07 19:03:56;;;;;;;3.90;0.90;;;;;;;;;;5031316;28;20558;-56
2022/04/07 19:06:54;;;;;;;1.35;0.70;;;;;;;;;;5030803;28;20037;-56
2022/04/07 19:09:29;;;;;;;0.90;0.43;;;;;;;;;;4992893;28;20513;-55
2022/04/07 19:12:13;;;;;;;0.85;0.57;;;;;;;;;;5030422;28;20033;-53
2022/04/07 19:15:09;;;;;;;1.42;0.35;;;;;;;;;;5031444;28;20517;-56
2022/04/07 19:18:04;;;;;;;0.60;0.30;;;;;;;;;;5030197;28;20044;-56
2022/04/07 19:20:36;;;;;;;0.85;0.50;;;;;;;;;;5031605;28;20111;-51
2022/04/07 19:23:14;;;;;;;2.60;0.70;;;;;;;;;;5030924;28;20110;-57
2022/04/07 19:29:15;;;;;;;;;;;;;;;;;;;;;
2022/04/07 19:31:59;;;;;;;;;;;;;;;;;;;;;
2022/04/07 19:35:01;;;;;;;5.85;1.33;;;;;;;;;;5030100;28;20033;-56
2022/04/07 19:37:56;;;;;;;5.60;1.42;;;;;;;;;;5014332;28;20044;-56
2022/04/07 19:40:41;;;;;;;1.40;0.70;;;;;;;;;;5028252;28;20059;-53
2022/04/07 19:43:36;;;;;;;4.53;1.40;;;;;;;;;;5021745;28;20188;-57
2022/04/07 19:49:35;;;;;;;4.13;1.02;;;;;;;;;;5018790;28;20045;-55
2022/04/07 19:52:14;;;;;;;2.17;0.70;;;;;;;;;;4931375;29;20052;-54
2022/04/07 19:57:38;;;;;;;8.50;1.65;;;;;;;;;;4993961;28;20068;-56
2022/04/07 20:03:41;;;;;;;7.50;1.38;;;;;;;;;;5022635;28;20435;-56
2022/04/07 20:06:35;;;;;;;4.78;1.80;;;;;;;;;;5028430;28;20112;-56
2022/04/07 20:09:22;;;;;;;4.70;1.38;;;;;;;;;;5009827;28;20044;-57
2022/04/07 20:12:12;;;;;;;2.42;1.15;;;;;;;;;;5029166;28;20021;-56
2022/04/07 20:14:50;;;;;;;3.40;1.13;;;;;;;;;;5008872;28;20123;-56
2022/04/07 20:17:33;;;;;;;2.15;0.90;;;;;;;;;;5009440;28;20060;-56
2022/04/07 20:20:04;;;;;;;6.85;1.92;;;;;;;;;;5030368;28;20510;-57
2022/04/07 20:22:43;;;;;;;3.05;1.58;;;;;;;;;;5021718;28;20471;-56
2022/04/07 20:25:23;;;;;;;3.22;1.10;;;;;;;;;;5028287;28;20037;-56
2022/04/07 20:27:53;;;;;;;5.32;1.23;;;;;;;;;;5027364;28;20544;-56
2022/04/07 20:30:30;;;;;;;2.53;0.98;;;;;;;;;;5031464;28;20025;-56
2022/04/07 20:33:21;;;;;;;;;;;;;;;;;;;;;
2022/04/07 20:36:16;;;;;;;1.65;0.93;;;;;;;;;;5033293;28;20108;-54
2022/04/07 20:45:16;;;;;;;4.78;1.45;;;;;;;;;;4940162;29;20438;-56
2022/04/07 20:54:08;;;;;;;4.85;1.67;;;;;;;;;;4986976;28;20079;-57
2022/04/07 20:59:44;;;;;;;2.78;1.33;;;;;;;;;;5003830;28;20037;-56
2022/04/07 21:02:29;;;;;;;5.65;1.63;;;;;;;;;;5039637;28;20029;-56
2022/04/07 21:08:04;;;;;;;1.88;1.67;;;;;;;;;;4944506;29;20031;-53
2022/04/07 21:10:37;;;;;;;4.15;1.20;;;;;;;;;;4944723;29;20039;-54
2022/04/07 21:13:14;;;;;;;4.65;0.73;;;;;;;;;;4929504;29;20036;-54
2022/04/07 21:15:49;;;;;;;4.53;1.17;;;;;;;;;;4944925;29;20311;-52
2022/04/07 21:19:02;;;;;;;12.00;1.67;;;;;;;;;;4957882;28;20057;-54
2022/04/07 21:21:34;;;;;;;3.03;1.25;;;;;;;;;;5010798;28;20042;-56
2022/04/07 21:24:33;;;;;;;5.53;2.05;;;;;;;;;;5008464;28;20218;-54
2022/04/07 21:27:20;;;;;;;3.67;1.27;;;;;;;;;;5025489;28;20049;-55
2022/04/07 21:30:08;;;;;;;8.13;1.45;;;;;;;;;;4982966;28;20043;-53
2022/04/07 21:32:57;;;;;;;;;;;;;;;;;;;;;
2022/04/07 21:35:44;;;;;;;4.38;1.20;;;;;;;;;;5012324;28;20046;-54
2022/04/07 21:38:32;;;;;;;5.30;2.03;;;;;;;;;;5007508;28;20383;-54
2022/04/07 21:41:10;;;;;;;2.72;1.30;;;;;;;;;;5027719;28;20058;-50
2022/04/07 21:43:44;;;;;;;3.97;1.30;;;;;;;;;;5011821;28;20022;-56
2022/04/07 21:49:46;;;;;;;3.60;0.98;;;;;;;;;;5018734;28;20045;-55
2022/04/07 21:52:51;;;;;;;7.05;1.67;;;;;;;;;;5021108;28;20080;-57
2022/04/07 21:55:50;;;;;;;5.88;1.85;;;;;;;;;;4996076;28;20030;-52
2022/04/07 21:58:40;;;;;;;1.85;0.90;;;;;;;;;;5015730;28;20041;-55
2022/04/07 22:01:28;;;;;;;7.00;2.07;;;;;;;;;;5027858;28;20438;-56
2022/04/07 22:04:25;;;;;;;9.02;2.03;;;;;;;;;;5027943;28;20041;-56
2022/04/07 22:06:58;;;;;;;5.28;1.40;;;;;;;;;;5027758;28;20026;-55
2022/04/07 22:09:35;;;;;;;7.18;1.65;;;;;;;;;;5027236;28;20030;-55
2022/04/07 22:12:14;;;;;;;8.30;1.50;;;;;;;;;;5027669;28;20092;-54
2022/04/07 22:15:08;;;;;;;4.25;1.30;;;;;;;;;;5027633;28;20034;-54
2022/04/07 22:21:10;;;;;;;3.17;1.10;;;;;;;;;;4967189;29;20080;-53
2022/04/07 22:23:46;;;;;;;7.00;1.13;;;;;;;;;;4967008;29;20041;-53
2022/04/07 22:26:42;;;;;;;4.80;1.58;;;;;;;;;;4966745;29;20540;-55
2022/04/07 22:29:49;;;;;;;;;;;;;;;;;;;;;
2022/04/07 22:32:28;;;;;;;2.22;0.80;;;;;;;;;;5027431;28;20045;-56
2022/04/07 22:35:00;;;;;;;5.43;2.10;;;;;;;;;;5027974;28;20026;-55
2022/04/07 22:37:48;;;;;;;3.40;1.15;;;;;;;;;;5026755;28;20034;-56
2022/04/07 22:43:29;;;;;;;6.75;0.85;;;;;;;;;;4947490;29;20036;-56
2022/04/07 22:46:34;;;;;;;2.35;0.90;;;;;;;;;;4947190;29;20028;-56
2022/04/07 22:55:00;;;;;;;5.03;1.63;;;;;;;;;;5012901;28;20036;-54
2022/04/07 22:58:05;;;;;;;3.20;1.17;;;;;;;;;;5024153;28;20042;-54
2022/04/07 23:00:43;;;;;;;5.63;1.13;;;;;;;;;;5022243;28;20053;-53
2022/04/07 23:06:38;;;;;;;7.78;1.55;;;;;;;;;;4945684;29;20032;-56
2022/04/07 23:09:32;;;;;;;3.00;0.88;;;;;;;;;;4928938;29;20071;-54
2022/04/07 23:12:17;;;;;;;3.80;1.38;;;;;;;;;;5008027;28;20076;-54
2022/04/07 23:15:09;;;;;;;7.72;1.58;;;;;;;;;;5024854;28;20026;-56
2022/04/07 23:20:53;;;;;;;5.78;1.23;;;;;;;;;;4945568;29;20043;-55
2022/04/07 23:23:29;;;;;;;4.13;1.02;;;;;;;;;;4924935;29;20035;-54
2022/04/07 23:26:16;;;;;;;5.88;1.25;;;;;;;;;;4988353;28;20030;-51
2022/04/07 23:29:09;;;;;;;3.25;0.65;;;;;;;;;;5024674;28;20472;-56
2022/04/07 23:32:04;;;;;;;3.22;1.25;;;;;;;;;;5025981;28;20112;-55
2022/04/07 23:37:52;;;;;;;2.75;0.77;;;;;;;;;;4987690;28;20038;-53
2022/04/07 23:40:45;;;;;;;5.07;0.85;;;;;;;;;;5025860;28;20041;-55
2022/04/07 23:43:36;;;;;;;1.92;0.40;;;;;;;;;;5026074;28;20086;-52
2022/04/07 23:46:16;;;;;;;3.15;1.27;;;;;;;;;;5025269;28;20033;-53
2022/04/07 23:49:16;;;;;;;3.70;0.90;;;;;;;;;;5024811;28;20045;-55
2022/04/07 23:52:35;;;;;;;;;;;;;;;;;;;;;
2022/04/07 23:54:57;;;;;;;2.00;0.80;;;;;;;;;;5016342;28;20037;-54
2022/04/07 23:57:38;;;;;;;2.40;1.02;;;;;;;;;;5024183;28;20036;-51
